Tropical Cyclones
[Index]
Main Index Home Page Stock Weather Photos Extreme Storms Discussion Storm News and Storm Chasing Reports Tropical Cyclones / Hurricanes / Typhoons Weather Data and Links Wild Fires / Bushfires Weather Observation Techniques Weather Picture Catalogue Tornado Pictures and Reports Stock Video Footage and DVDs for sale
Season 1959-1960 Tropical Cyclone 195960_05 Track Map
Season 1959-1960 Summaries: [BoM-AU] [JTWC-AU] [JTWC-SIO] [JTWC-SPAC] [JTWC-SH]
<<- Previous TC | BoM 1959-1960 Season | Next TC ->>

click for intensity scale information  Lat/long Grid: Show Hide

 Date Labels: Show Hide

Bureau of Meteorology Tropical Cyclone Data

Name: 195960_05
Number: 326 / 195960_05

03 Mar 1960 11:00 UTC to 09 Mar 1960 11:00 UTC

    date/time    lat    long    hPa   cat  kts
1960-03-03 11   13.5   154.5   1003                     
1960-03-03 23   13.8   154.5   1003                     
1960-03-04 11   14.0   154.5   1002                     
1960-03-04 17   14.7   154.3   1000                     
1960-03-04 23   15.2   153.8   1000                     
1960-03-05 05   15.4   153.5   1000                     
1960-03-05 11   15.6   153.2   1000                     
1960-03-05 17   15.7   152.7   1000                     
1960-03-05 23   15.8   152.3   1000                     
1960-03-06 05   15.9   151.8   1000                     
1960-03-06 08   15.9   151.0   1000                     
1960-03-06 11   16.0   150.4   1000                     
1960-03-06 17   16.0   150.1   1000                     
1960-03-06 20   16.1   149.9   1000                     
1960-03-06 23   16.2   149.9   1000                     
1960-03-07 05   16.9   149.6   1000                     
1960-03-07 11   17.5   149.2   1000                     
1960-03-07 17   18.0   148.6   1000                     
1960-03-07 23   18.4   148.0   1000                     
1960-03-08 06   18.6   147.6   1001                     
1960-03-08 08   18.6   147.1   1001                     
1960-03-08 11   18.5   147.2   1001                     
1960-03-08 17   18.5   147.5   1002                     
1960-03-08 23   18.6   147.4   1002                     
1960-03-09 05   18.7   147.2   1002                     
1960-03-09 11   18.7   146.5   1005                     
Winds are 10-min average.

Tropical cyclone tracks developed by Michael Bath using data from the Bureau of Meteorology and Google Maps.


[Australian Severe Weather index] [Copyright Notice] [Email Contacts] [Search This Site] [Privacy Policy]
Document: tropical_cyclone_195960_05.htm Updated: 30 May 2013